sensor_id;sensor_type;location;lat;lon;timestamp;temperature;humidity
65048;DHT22;52089;51.362;-2.384;2023-01-15T00:01:25;4.30;99.90
65048;DHT22;52089;51.362;-2.384;2023-01-15T00:05:07;4.50;99.90
65048;DHT22;52089;51.362;-2.384;2023-01-15T00:08:51;4.50;99.90
65048;DHT22;52089;51.362;-2.384;2023-01-15T00:12:33;4.60;99.90
65048;DHT22;52089;51.362;-2.384;2023-01-15T00:16:17;4.60;99.90
65048;DHT22;52089;51.362;-2.384;2023-01-15T00:19:59;4.60;99.90
65048;DHT22;52089;51.362;-2.384;2023-01-15T00:23:43;4.50;99.90
65048;DHT22;52089;51.362;-2.384;2023-01-15T00:27:43;4.50;99.90
65048;DHT22;52089;51.362;-2.384;2023-01-15T00:31:29;4.40;99.90
65048;DHT22;52089;51.362;-2.384;2023-01-15T00:35:17;4.20;99.90
65048;DHT22;52089;51.362;-2.384;2023-01-15T00:38:59;4.20;99.90
65048;DHT22;52089;51.362;-2.384;2023-01-15T00:42:42;4.00;99.90
65048;DHT22;52089;51.362;-2.384;2023-01-15T00:46:35;4.00;99.90
65048;DHT22;52089;51.362;-2.384;2023-01-15T00:50:18;4.00;99.90
65048;DHT22;52089;51.362;-2.384;2023-01-15T00:54:00;3.90;99.90
65048;DHT22;52089;51.362;-2.384;2023-01-15T00:57:41;3.80;99.90
65048;DHT22;52089;51.362;-2.384;2023-01-15T01:01:23;3.70;99.90
65048;DHT22;52089;51.362;-2.384;2023-01-15T01:05:06;3.70;99.90
65048;DHT22;52089;51.362;-2.384;2023-01-15T01:08:48;3.70;99.90
65048;DHT22;52089;51.362;-2.384;2023-01-15T01:12:30;3.70;99.90
65048;DHT22;52089;51.362;-2.384;2023-01-15T01:20:03;3.80;99.90
65048;DHT22;52089;51.362;-2.384;2023-01-15T01:23:45;3.90;99.90
65048;DHT22;52089;51.362;-2.384;2023-01-15T01:27:26;3.90;99.90
65048;DHT22;52089;51.362;-2.384;2023-01-15T01:31:08;3.90;99.90
65048;DHT22;52089;51.362;-2.384;2023-01-15T01:34:50;3.70;99.90
65048;DHT22;52089;51.362;-2.384;2023-01-15T01:38:32;3.70;99.90
65048;DHT22;52089;51.362;-2.384;2023-01-15T01:42:15;3.70;99.90
65048;DHT22;52089;51.362;-2.384;2023-01-15T01:45:57;3.80;99.90
65048;DHT22;52089;51.362;-2.384;2023-01-15T01:49:41;3.80;99.90
65048;DHT22;52089;51.362;-2.384;2023-01-15T01:53:26;3.80;99.90
65048;DHT22;52089;51.362;-2.384;2023-01-15T01:57:08;3.70;99.90
65048;DHT22;52089;51.362;-2.384;2023-01-15T02:00:50;3.70;99.90
65048;DHT22;52089;51.362;-2.384;2023-01-15T02:04:33;3.70;99.90
65048;DHT22;52089;51.362;-2.384;2023-01-15T02:08:15;3.80;99.90
65048;DHT22;52089;51.362;-2.384;2023-01-15T02:11:57;3.90;99.90
65048;DHT22;52089;51.362;-2.384;2023-01-15T02:15:42;3.80;99.90
65048;DHT22;52089;51.362;-2.384;2023-01-15T02:27:18;3.40;99.90
65048;DHT22;52089;51.362;-2.384;2023-01-15T02:34:45;3.50;99.90
65048;DHT22;52089;51.362;-2.384;2023-01-15T02:38:30;3.60;99.90
65048;DHT22;52089;51.362;-2.384;2023-01-15T02:42:12;3.80;99.90
65048;DHT22;52089;51.362;-2.384;2023-01-15T02:45:55;3.80;99.90
65048;DHT22;52089;51.362;-2.384;2023-01-15T02:49:38;3.80;99.90
65048;DHT22;52089;51.362;-2.384;2023-01-15T02:53:22;3.80;99.90
65048;DHT22;52089;51.362;-2.384;2023-01-15T02:57:05;3.80;99.90
65048;DHT22;52089;51.362;-2.384;2023-01-15T03:00:48;3.60;99.90
65048;DHT22;52089;51.362;-2.384;2023-01-15T03:08:32;3.40;99.90
65048;DHT22;52089;51.362;-2.384;2023-01-15T03:12:25;3.50;99.90
65048;DHT22;52089;51.362;-2.384;2023-01-15T03:16:20;3.40;99.90
65048;DHT22;52089;51.362;-2.384;2023-01-15T03:20:19;3.40;99.90
65048;DHT22;52089;51.362;-2.384;2023-01-15T03:24:03;3.50;99.90
65048;DHT22;52089;51.362;-2.384;2023-01-15T03:27:46;3.60;99.90
65048;DHT22;52089;51.362;-2.384;2023-01-15T03:31:28;3.60;99.90
65048;DHT22;52089;51.362;-2.384;2023-01-15T03:39:10;3.60;99.90
65048;DHT22;52089;51.362;-2.384;2023-01-15T03:42:53;3.70;99.90
65048;DHT22;52089;51.362;-2.384;2023-01-15T03:54:30;3.70;99.90
65048;DHT22;52089;51.362;-2.384;2023-01-15T03:58:18;3.70;99.90
65048;DHT22;52089;51.362;-2.384;2023-01-15T04:02:01;3.60;99.90
65048;DHT22;52089;51.362;-2.384;2023-01-15T04:05:44;3.50;99.90
65048;DHT22;52089;51.362;-2.384;2023-01-15T04:09:26;3.40;99.90
65048;DHT22;52089;51.362;-2.384;2023-01-15T04:13:08;3.40;99.90
65048;DHT22;52089;51.362;-2.384;2023-01-15T04:16:49;3.50;99.90
65048;DHT22;52089;51.362;-2.384;2023-01-15T04:20:31;3.50;99.90
65048;DHT22;52089;51.362;-2.384;2023-01-15T04:24:13;3.50;99.90
65048;DHT22;52089;51.362;-2.384;2023-01-15T04:27:54;3.60;99.90
65048;DHT22;52089;51.362;-2.384;2023-01-15T04:31:36;3.70;99.90
65048;DHT22;52089;51.362;-2.384;2023-01-15T04:35:18;3.80;99.90
65048;DHT22;52089;51.362;-2.384;2023-01-15T04:39:00;3.80;99.90
65048;DHT22;52089;51.362;-2.384;2023-01-15T04:42:42;3.90;99.90
65048;DHT22;52089;51.362;-2.384;2023-01-15T04:46:42;3.90;99.90
65048;DHT22;52089;51.362;-2.384;2023-01-15T04:50:24;3.90;99.90
65048;DHT22;52089;51.362;-2.384;2023-01-15T04:54:07;3.90;99.90
65048;DHT22;52089;51.362;-2.384;2023-01-15T04:57:49;3.80;99.90
65048;DHT22;52089;51.362;-2.384;2023-01-15T05:01:30;3.70;99.90
65048;DHT22;52089;51.362;-2.384;2023-01-15T05:05:12;3.60;99.90
65048;DHT22;52089;51.362;-2.384;2023-01-15T05:08:54;3.60;99.90
65048;DHT22;52089;51.362;-2.384;2023-01-15T05:12:35;3.50;99.90
65048;DHT22;52089;51.362;-2.384;2023-01-15T05:16:18;3.50;99.90
65048;DHT22;52089;51.362;-2.384;2023-01-15T05:20:02;3.60;99.90
65048;DHT22;52089;51.362;-2.384;2023-01-15T05:23:47;3.60;99.90
65048;DHT22;52089;51.362;-2.384;2023-01-15T05:27:29;3.70;99.90
65048;DHT22;52089;51.362;-2.384;2023-01-15T05:31:12;3.70;99.90
65048;DHT22;52089;51.362;-2.384;2023-01-15T05:34:55;3.80;99.90
65048;DHT22;52089;51.362;-2.384;2023-01-15T05:38:37;3.70;99.90
65048;DHT22;52089;51.362;-2.384;2023-01-15T05:42:18;3.70;99.90
65048;DHT22;52089;51.362;-2.384;2023-01-15T05:46:00;3.70;99.90
65048;DHT22;52089;51.362;-2.384;2023-01-15T05:49:42;3.60;99.90
65048;DHT22;52089;51.362;-2.384;2023-01-15T05:53:24;3.60;99.90
65048;DHT22;52089;51.362;-2.384;2023-01-15T05:57:06;3.60;99.90
65048;DHT22;52089;51.362;-2.384;2023-01-15T06:00:47;3.70;99.90
65048;DHT22;52089;51.362;-2.384;2023-01-15T06:04:29;3.80;99.90
65048;DHT22;52089;51.362;-2.384;2023-01-15T06:08:11;4.00;99.90
65048;DHT22;52089;51.362;-2.384;2023-01-15T06:11:52;4.10;99.90
65048;DHT22;52089;51.362;-2.384;2023-01-15T06:15:34;4.10;99.90
65048;DHT22;52089;51.362;-2.384;2023-01-15T06:19:16;4.20;99.90
65048;DHT22;52089;51.362;-2.384;2023-01-15T06:22:57;4.20;99.90
65048;DHT22;52089;51.362;-2.384;2023-01-15T06:26:39;4.30;99.90
65048;DHT22;52089;51.362;-2.384;2023-01-15T06:30:21;4.30;99.90
65048;DHT22;52089;51.362;-2.384;2023-01-15T06:34:02;4.40;99.90
65048;DHT22;52089;51.362;-2.384;2023-01-15T06:37:44;4.40;99.90
65048;DHT22;52089;51.362;-2.384;2023-01-15T06:41:26;4.40;99.90
65048;DHT22;52089;51.362;-2.384;2023-01-15T06:45:26;4.30;99.90
65048;DHT22;52089;51.362;-2.384;2023-01-15T06:49:27;4.20;99.90
65048;DHT22;52089;51.362;-2.384;2023-01-15T06:53:09;4.30;99.90
65048;DHT22;52089;51.362;-2.384;2023-01-15T06:56:51;4.40;99.90
65048;DHT22;52089;51.362;-2.384;2023-01-15T07:00:32;4.50;99.90
65048;DHT22;52089;51.362;-2.384;2023-01-15T07:04:14;4.40;99.90
65048;DHT22;52089;51.362;-2.384;2023-01-15T07:07:56;4.20;99.90
65048;DHT22;52089;51.362;-2.384;2023-01-15T07:11:38;4.30;99.90
65048;DHT22;52089;51.362;-2.384;2023-01-15T07:15:30;4.40;99.90
65048;DHT22;52089;51.362;-2.384;2023-01-15T07:19:11;4.40;99.90
65048;DHT22;52089;51.362;-2.384;2023-01-15T07:22:53;4.30;99.90
65048;DHT22;52089;51.362;-2.384;2023-01-15T07:26:35;4.30;99.90
65048;DHT22;52089;51.362;-2.384;2023-01-15T07:30:16;4.30;99.90
65048;DHT22;52089;51.362;-2.384;2023-01-15T07:33:58;4.40;99.90
65048;DHT22;52089;51.362;-2.384;2023-01-15T07:37:40;4.50;99.90
65048;DHT22;52089;51.362;-2.384;2023-01-15T07:41:24;4.60;99.90
65048;DHT22;52089;51.362;-2.384;2023-01-15T07:45:25;4.70;99.90
65048;DHT22;52089;51.362;-2.384;2023-01-15T07:49:25;4.70;99.90
65048;DHT22;52089;51.362;-2.384;2023-01-15T07:53:25;4.70;99.90
65048;DHT22;52089;51.362;-2.384;2023-01-15T07:57:07;4.70;99.90
65048;DHT22;52089;51.362;-2.384;2023-01-15T08:00:49;4.70;99.90
65048;DHT22;52089;51.362;-2.384;2023-01-15T08:04:31;4.70;99.90
65048;DHT22;52089;51.362;-2.384;2023-01-15T08:08:13;4.70;99.90
65048;DHT22;52089;51.362;-2.384;2023-01-15T08:11:57;4.70;99.90
65048;DHT22;52089;51.362;-2.384;2023-01-15T08:15:57;4.80;99.90
65048;DHT22;52089;51.362;-2.384;2023-01-15T08:19:39;4.70;99.90
65048;DHT22;52089;51.362;-2.384;2023-01-15T08:23:20;4.60;99.90
65048;DHT22;52089;51.362;-2.384;2023-01-15T08:27:02;4.40;99.90
65048;DHT22;52089;51.362;-2.384;2023-01-15T08:30:44;4.30;99.90
65048;DHT22;52089;51.362;-2.384;2023-01-15T08:34:26;4.30;99.90
65048;DHT22;52089;51.362;-2.384;2023-01-15T08:38:07;4.40;99.90
65048;DHT22;52089;51.362;-2.384;2023-01-15T08:41:49;4.40;99.90
65048;DHT22;52089;51.362;-2.384;2023-01-15T08:45:30;4.40;99.90
65048;DHT22;52089;51.362;-2.384;2023-01-15T08:49:12;4.50;99.90
65048;DHT22;52089;51.362;-2.384;2023-01-15T08:52:54;4.50;99.90
65048;DHT22;52089;51.362;-2.384;2023-01-15T08:56:36;4.50;99.90
65048;DHT22;52089;51.362;-2.384;2023-01-15T09:00:18;4.70;99.90
65048;DHT22;52089;51.362;-2.384;2023-01-15T09:04:00;4.90;99.90
65048;DHT22;52089;51.362;-2.384;2023-01-15T09:07:41;5.00;99.90
65048;DHT22;52089;51.362;-2.384;2023-01-15T09:11:23;5.10;99.90
65048;DHT22;52089;51.362;-2.384;2023-01-15T09:15:05;5.20;99.90
65048;DHT22;52089;51.362;-2.384;2023-01-15T09:18:46;5.20;99.90
65048;DHT22;52089;51.362;-2.384;2023-01-15T09:22:28;5.10;99.90
65048;DHT22;52089;51.362;-2.384;2023-01-15T09:26:28;4.50;99.90
65048;DHT22;52089;51.362;-2.384;2023-01-15T09:30:13;4.20;99.90
65048;DHT22;52089;51.362;-2.384;2023-01-15T09:33:55;4.20;99.90
65048;DHT22;52089;51.362;-2.384;2023-01-15T09:37:37;4.30;99.90
65048;DHT22;52089;51.362;-2.384;2023-01-15T09:41:18;4.40;99.90
65048;DHT22;52089;51.362;-2.384;2023-01-15T09:45:21;4.60;99.90
65048;DHT22;52089;51.362;-2.384;2023-01-15T09:49:22;4.70;99.90
65048;DHT22;52089;51.362;-2.384;2023-01-15T09:56:49;5.00;99.90
65048;DHT22;52089;51.362;-2.384;2023-01-15T10:00:37;5.10;99.90
65048;DHT22;52089;51.362;-2.384;2023-01-15T10:04:28;5.20;99.90
65048;DHT22;52089;51.362;-2.384;2023-01-15T10:08:19;5.30;99.90
65048;DHT22;52089;51.362;-2.384;2023-01-15T10:12:21;5.40;99.90
65048;DHT22;52089;51.362;-2.384;2023-01-15T10:16:19;5.50;99.90
65048;DHT22;52089;51.362;-2.384;2023-01-15T10:20:02;5.40;99.90
65048;DHT22;52089;51.362;-2.384;2023-01-15T10:27:37;5.30;99.90
65048;DHT22;52089;51.362;-2.384;2023-01-15T10:31:22;5.30;99.90
65048;DHT22;52089;51.362;-2.384;2023-01-15T10:46:59;5.20;99.90
65048;DHT22;52089;51.362;-2.384;2023-01-15T10:50:42;5.20;99.90
65048;DHT22;52089;51.362;-2.384;2023-01-15T11:02:30;5.20;99.90
65048;DHT22;52089;51.362;-2.384;2023-01-15T11:06:14;5.10;99.90
65048;DHT22;52089;51.362;-2.384;2023-01-15T11:09:57;5.00;99.90
65048;DHT22;52089;51.362;-2.384;2023-01-15T11:13:51;5.40;99.90
65048;DHT22;52089;51.362;-2.384;2023-01-15T11:17:51;6.90;99.90
65048;DHT22;52089;51.362;-2.384;2023-01-15T11:21:51;9.00;99.90
65048;DHT22;52089;51.362;-2.384;2023-01-15T11:25:33;9.80;99.90
65048;DHT22;52089;51.362;-2.384;2023-01-15T11:29:20;9.30;99.90
65048;DHT22;52089;51.362;-2.384;2023-01-15T11:33:21;8.50;99.90
65048;DHT22;52089;51.362;-2.384;2023-01-15T11:37:04;7.90;99.90
65048;DHT22;52089;51.362;-2.384;2023-01-15T11:44:34;8.00;99.90
65048;DHT22;52089;51.362;-2.384;2023-01-15T11:48:41;9.40;99.90
65048;DHT22;52089;51.362;-2.384;2023-01-15T11:52:45;10.20;99.90
65048;DHT22;52089;51.362;-2.384;2023-01-15T11:56:28;10.30;99.90
65048;DHT22;52089;51.362;-2.384;2023-01-15T12:00:21;10.50;99.90
65048;DHT22;52089;51.362;-2.384;2023-01-15T12:04:04;10.30;99.90
65048;DHT22;52089;51.362;-2.384;2023-01-15T12:07:48;11.10;99.90
65048;DHT22;52089;51.362;-2.384;2023-01-15T12:15:27;9.00;99.90
65048;DHT22;52089;51.362;-2.384;2023-01-15T12:19:13;8.00;99.90
65048;DHT22;52089;51.362;-2.384;2023-01-15T12:23:04;7.50;99.90
65048;DHT22;52089;51.362;-2.384;2023-01-15T12:30:37;6.80;99.90
65048;DHT22;52089;51.362;-2.384;2023-01-15T12:38:22;6.60;99.90
65048;DHT22;52089;51.362;-2.384;2023-01-15T12:42:08;6.70;99.90
65048;DHT22;52089;51.362;-2.384;2023-01-15T12:46:11;6.70;99.90
65048;DHT22;52089;51.362;-2.384;2023-01-15T12:49:57;6.80;99.90
65048;DHT22;52089;51.362;-2.384;2023-01-15T12:53:44;6.90;99.90
65048;DHT22;52089;51.362;-2.384;2023-01-15T12:57:30;7.00;99.90
65048;DHT22;52089;51.362;-2.384;2023-01-15T13:05:12;7.30;99.90
65048;DHT22;52089;51.362;-2.384;2023-01-15T13:12:37;7.40;99.90
65048;DHT22;52089;51.362;-2.384;2023-01-15T13:20:09;7.30;99.90
65048;DHT22;52089;51.362;-2.384;2023-01-15T13:31:40;7.30;99.90
65048;DHT22;52089;51.362;-2.384;2023-01-15T13:35:30;7.30;99.90
65048;DHT22;52089;51.362;-2.384;2023-01-15T13:39:17;7.20;99.90
65048;DHT22;52089;51.362;-2.384;2023-01-15T13:43:00;7.30;99.90
65048;DHT22;52089;51.362;-2.384;2023-01-15T13:46:42;7.50;99.90
65048;DHT22;52089;51.362;-2.384;2023-01-15T13:50:29;7.60;99.90
65048;DHT22;52089;51.362;-2.384;2023-01-15T13:54:12;7.60;99.90
65048;DHT22;52089;51.362;-2.384;2023-01-15T13:57:56;7.80;99.90
65048;DHT22;52089;51.362;-2.384;2023-01-15T14:01:38;8.10;99.90
65048;DHT22;52089;51.362;-2.384;2023-01-15T14:09:04;8.50;99.90
65048;DHT22;52089;51.362;-2.384;2023-01-15T14:32:12;9.30;99.90
65048;DHT22;52089;51.362;-2.384;2023-01-15T14:35:58;9.40;99.90
65048;DHT22;52089;51.362;-2.384;2023-01-15T14:39:49;9.60;99.90
65048;DHT22;52089;51.362;-2.384;2023-01-15T14:43:33;9.60;99.90
65048;DHT22;52089;51.362;-2.384;2023-01-15T14:47:19;9.80;99.90
65048;DHT22;52089;51.362;-2.384;2023-01-15T14:54:52;9.90;99.90
65048;DHT22;52089;51.362;-2.384;2023-01-15T14:58:35;9.90;99.90
65048;DHT22;52089;51.362;-2.384;2023-01-15T15:02:22;9.80;99.90
65048;DHT22;52089;51.362;-2.384;2023-01-15T15:14:12;11.00;99.90
65048;DHT22;52089;51.362;-2.384;2023-01-15T15:21:39;13.40;99.90
65048;DHT22;52089;51.362;-2.384;2023-01-15T15:25:23;13.50;99.90
65048;DHT22;52089;51.362;-2.384;2023-01-15T15:32:48;13.80;99.90
65048;DHT22;52089;51.362;-2.384;2023-01-15T15:36:30;13.90;99.90
65048;DHT22;52089;51.362;-2.384;2023-01-15T15:40:14;14.00;99.90
65048;DHT22;52089;51.362;-2.384;2023-01-15T15:43:55;14.20;99.90
65048;DHT22;52089;51.362;-2.384;2023-01-15T15:47:57;14.30;99.90
65048;DHT22;52089;51.362;-2.384;2023-01-15T15:51:58;14.40;99.90
65048;DHT22;52089;51.362;-2.384;2023-01-15T15:55:40;14.60;99.90
65048;DHT22;52089;51.362;-2.384;2023-01-15T15:59:29;14.60;99.90
65048;DHT22;52089;51.362;-2.384;2023-01-15T16:03:19;14.70;99.90
65048;DHT22;52089;51.362;-2.384;2023-01-15T16:07:10;14.80;99.90
65048;DHT22;52089;51.362;-2.384;2023-01-15T16:10:53;14.90;99.90
65048;DHT22;52089;51.362;-2.384;2023-01-15T16:14:36;15.00;99.90
65048;DHT22;52089;51.362;-2.384;2023-01-15T16:18:28;15.10;99.90
65048;DHT22;52089;51.362;-2.384;2023-01-15T16:22:13;15.10;99.90
65048;DHT22;52089;51.362;-2.384;2023-01-15T16:25:57;15.20;99.90
65048;DHT22;52089;51.362;-2.384;2023-01-15T16:29:44;15.30;99.90
65048;DHT22;52089;51.362;-2.384;2023-01-15T16:33:27;15.30;99.90
65048;DHT22;52089;51.362;-2.384;2023-01-15T16:37:22;15.40;99.90
65048;DHT22;52089;51.362;-2.384;2023-01-15T16:41:04;15.40;99.90
65048;DHT22;52089;51.362;-2.384;2023-01-15T16:44:50;15.40;99.90
65048;DHT22;52089;51.362;-2.384;2023-01-15T16:48:33;15.50;99.90
65048;DHT22;52089;51.362;-2.384;2023-01-15T17:00:06;15.60;99.90
65048;DHT22;52089;51.362;-2.384;2023-01-15T17:03:48;15.70;99.90
65048;DHT22;52089;51.362;-2.384;2023-01-15T17:07:33;15.60;99.90
65048;DHT22;52089;51.362;-2.384;2023-01-15T17:11:21;15.60;99.90
65048;DHT22;52089;51.362;-2.384;2023-01-15T17:18:55;15.70;99.90
65048;DHT22;52089;51.362;-2.384;2023-01-15T17:22:38;15.70;99.90
65048;DHT22;52089;51.362;-2.384;2023-01-15T17:26:21;15.70;99.90
65048;DHT22;52089;51.362;-2.384;2023-01-15T17:30:04;15.70;99.90
65048;DHT22;52089;51.362;-2.384;2023-01-15T17:33:46;15.70;99.90
65048;DHT22;52089;51.362;-2.384;2023-01-15T17:37:27;15.80;99.90
65048;DHT22;52089;51.362;-2.384;2023-01-15T17:41:13;15.80;99.90
65048;DHT22;52089;51.362;-2.384;2023-01-15T17:44:55;15.80;99.90
65048;DHT22;52089;51.362;-2.384;2023-01-15T17:48:36;15.80;99.90
65048;DHT22;52089;51.362;-2.384;2023-01-15T17:52:18;15.80;99.90
65048;DHT22;52089;51.362;-2.384;2023-01-15T17:56:03;15.80;99.90
65048;DHT22;52089;51.362;-2.384;2023-01-15T18:00:03;15.80;99.90
65048;DHT22;52089;51.362;-2.384;2023-01-15T18:04:07;15.80;99.90
65048;DHT22;52089;51.362;-2.384;2023-01-15T18:08:13;15.90;99.90
65048;DHT22;52089;51.362;-2.384;2023-01-15T18:11:55;15.90;99.90
65048;DHT22;52089;51.362;-2.384;2023-01-15T18:15:37;15.90;99.90
65048;DHT22;52089;51.362;-2.384;2023-01-15T18:19:19;15.90;99.90
65048;DHT22;52089;51.362;-2.384;2023-01-15T18:23:00;15.90;99.90
65048;DHT22;52089;51.362;-2.384;2023-01-15T18:26:42;16.00;99.90
65048;DHT22;52089;51.362;-2.384;2023-01-15T18:30:25;15.90;99.90
65048;DHT22;52089;51.362;-2.384;2023-01-15T18:34:07;15.90;99.90
65048;DHT22;52089;51.362;-2.384;2023-01-15T18:37:49;16.00;99.90
65048;DHT22;52089;51.362;-2.384;2023-01-15T18:41:32;15.90;99.90
65048;DHT22;52089;51.362;-2.384;2023-01-15T18:45:16;16.00;99.90
65048;DHT22;52089;51.362;-2.384;2023-01-15T18:49:17;16.00;99.90
65048;DHT22;52089;51.362;-2.384;2023-01-15T18:52:58;16.00;99.90
65048;DHT22;52089;51.362;-2.384;2023-01-15T18:56:40;16.00;99.90
65048;DHT22;52089;51.362;-2.384;2023-01-15T19:00:28;16.00;99.90
65048;DHT22;52089;51.362;-2.384;2023-01-15T19:04:10;16.00;99.90
65048;DHT22;52089;51.362;-2.384;2023-01-15T19:07:51;16.00;99.90
65048;DHT22;52089;51.362;-2.384;2023-01-15T19:11:33;16.10;99.90
65048;DHT22;52089;51.362;-2.384;2023-01-15T19:15:16;16.00;99.90
65048;DHT22;52089;51.362;-2.384;2023-01-15T19:19:16;16.10;99.90
65048;DHT22;52089;51.362;-2.384;2023-01-15T19:22:58;16.10;99.90
65048;DHT22;52089;51.362;-2.384;2023-01-15T19:26:40;16.10;99.90
65048;DHT22;52089;51.362;-2.384;2023-01-15T19:30:22;16.10;99.90
65048;DHT22;52089;51.362;-2.384;2023-01-15T19:34:04;16.10;99.90
65048;DHT22;52089;51.362;-2.384;2023-01-15T19:38:09;16.00;99.90
65048;DHT22;52089;51.362;-2.384;2023-01-15T19:41:53;16.10;99.90
65048;DHT22;52089;51.362;-2.384;2023-01-15T19:45:55;16.10;99.90
65048;DHT22;52089;51.362;-2.384;2023-01-15T19:49:55;16.00;99.90
65048;DHT22;52089;51.362;-2.384;2023-01-15T19:53:56;16.10;99.90
65048;DHT22;52089;51.362;-2.384;2023-01-15T19:57:39;16.10;99.90
65048;DHT22;52089;51.362;-2.384;2023-01-15T20:01:22;16.10;99.90
65048;DHT22;52089;51.362;-2.384;2023-01-15T20:05:04;16.20;99.90
65048;DHT22;52089;51.362;-2.384;2023-01-15T20:08:46;16.10;99.90
65048;DHT22;52089;51.362;-2.384;2023-01-15T20:12:28;16.20;99.90
65048;DHT22;52089;51.362;-2.384;2023-01-15T20:16:28;16.10;99.90
65048;DHT22;52089;51.362;-2.384;2023-01-15T20:20:10;16.20;99.90
65048;DHT22;52089;51.362;-2.384;2023-01-15T20:23:52;16.20;99.90
65048;DHT22;52089;51.362;-2.384;2023-01-15T20:27:35;16.20;99.90
65048;DHT22;52089;51.362;-2.384;2023-01-15T20:31:17;16.30;99.90
65048;DHT22;52089;51.362;-2.384;2023-01-15T20:35:00;16.30;99.90
65048;DHT22;52089;51.362;-2.384;2023-01-15T20:38:41;16.30;99.90
65048;DHT22;52089;51.362;-2.384;2023-01-15T20:42:23;16.30;99.90
65048;DHT22;52089;51.362;-2.384;2023-01-15T20:46:24;16.40;99.90
65048;DHT22;52089;51.362;-2.384;2023-01-15T20:50:06;16.40;99.90
65048;DHT22;52089;51.362;-2.384;2023-01-15T20:53:49;16.40;99.90
65048;DHT22;52089;51.362;-2.384;2023-01-15T20:57:35;16.40;99.90
65048;DHT22;52089;51.362;-2.384;2023-01-15T21:01:17;16.40;99.90
65048;DHT22;52089;51.362;-2.384;2023-01-15T21:04:59;16.40;99.90
65048;DHT22;52089;51.362;-2.384;2023-01-15T21:08:41;16.50;99.90
65048;DHT22;52089;51.362;-2.384;2023-01-15T21:12:26;16.50;99.90
65048;DHT22;52089;51.362;-2.384;2023-01-15T21:16:08;16.50;99.90
65048;DHT22;52089;51.362;-2.384;2023-01-15T21:19:50;16.50;99.90
65048;DHT22;52089;51.362;-2.384;2023-01-15T21:23:33;16.50;99.90
65048;DHT22;52089;51.362;-2.384;2023-01-15T21:27:15;16.60;99.90
65048;DHT22;52089;51.362;-2.384;2023-01-15T21:30:57;16.60;99.90
65048;DHT22;52089;51.362;-2.384;2023-01-15T21:34:40;16.60;99.90
65048;DHT22;52089;51.362;-2.384;2023-01-15T21:38:22;16.60;99.90
65048;DHT22;52089;51.362;-2.384;2023-01-15T21:42:03;16.60;99.90
65048;DHT22;52089;51.362;-2.384;2023-01-15T21:46:11;16.60;99.90
65048;DHT22;52089;51.362;-2.384;2023-01-15T21:49:53;16.60;99.90
65048;DHT22;52089;51.362;-2.384;2023-01-15T21:53:35;16.60;99.90
65048;DHT22;52089;51.362;-2.384;2023-01-15T21:57:17;16.60;99.90
65048;DHT22;52089;51.362;-2.384;2023-01-15T22:00:59;16.60;99.90
65048;DHT22;52089;51.362;-2.384;2023-01-15T22:04:41;16.60;99.90
65048;DHT22;52089;51.362;-2.384;2023-01-15T22:08:24;16.70;99.90
65048;DHT22;52089;51.362;-2.384;2023-01-15T22:12:06;16.70;99.90
65048;DHT22;52089;51.362;-2.384;2023-01-15T22:15:54;16.70;99.90
65048;DHT22;52089;51.362;-2.384;2023-01-15T22:19:35;16.70;99.90
65048;DHT22;52089;51.362;-2.384;2023-01-15T22:23:17;16.70;99.90
65048;DHT22;52089;51.362;-2.384;2023-01-15T22:26:59;16.70;99.90
65048;DHT22;52089;51.362;-2.384;2023-01-15T22:30:42;16.70;99.90
65048;DHT22;52089;51.362;-2.384;2023-01-15T22:34:24;16.70;99.90
65048;DHT22;52089;51.362;-2.384;2023-01-15T22:38:07;16.60;99.90
65048;DHT22;52089;51.362;-2.384;2023-01-15T22:41:48;16.70;99.90
65048;DHT22;52089;51.362;-2.384;2023-01-15T22:45:49;16.70;99.90
65048;DHT22;52089;51.362;-2.384;2023-01-15T22:49:30;16.70;99.90
65048;DHT22;52089;51.362;-2.384;2023-01-15T22:53:12;16.70;99.90
65048;DHT22;52089;51.362;-2.384;2023-01-15T22:56:54;16.70;99.90
65048;DHT22;52089;51.362;-2.384;2023-01-15T23:00:35;16.70;99.90
65048;DHT22;52089;51.362;-2.384;2023-01-15T23:04:23;16.70;99.90
65048;DHT22;52089;51.362;-2.384;2023-01-15T23:08:05;16.70;99.90
65048;DHT22;52089;51.362;-2.384;2023-01-15T23:11:47;16.70;99.90
65048;DHT22;52089;51.362;-2.384;2023-01-15T23:15:30;16.60;99.90
65048;DHT22;52089;51.362;-2.384;2023-01-15T23:19:12;16.70;99.90
65048;DHT22;52089;51.362;-2.384;2023-01-15T23:22:54;16.70;99.90
65048;DHT22;52089;51.362;-2.384;2023-01-15T23:26:36;16.60;99.90
65048;DHT22;52089;51.362;-2.384;2023-01-15T23:30:18;16.60;99.90
65048;DHT22;52089;51.362;-2.384;2023-01-15T23:34:00;16.60;99.90
65048;DHT22;52089;51.362;-2.384;2023-01-15T23:37:41;16.60;99.90
65048;DHT22;52089;51.362;-2.384;2023-01-15T23:41:24;16.60;99.90
65048;DHT22;52089;51.362;-2.384;2023-01-15T23:45:24;16.60;99.90
65048;DHT22;52089;51.362;-2.384;2023-01-15T23:49:24;16.60;99.90
65048;DHT22;52089;51.362;-2.384;2023-01-15T23:53:06;16.60;99.90
65048;DHT22;52089;51.362;-2.384;2023-01-15T23:56:48;16.60;99.90
